Nashville, Tennessee
Traffic Map
Current Weather Conditions
Nashville, Tennessee
Broken Clouds
Broken Clouds
88°
Feels Like: 88°
Wind Chill: 88° Ceiling: 25000
Heat Index: 88° Visibility: 10mi
Dew Point: 58° Wind: 0mph
Humidity: 36% Direction: ° ()
Pressure: 29.9in Gusts: 0mph
Raw Report DataKBNA 312153Z 00000KT 10SM FEW070 SCT150 BKN250 31/14 A2990 RMK AO2 SLP119 T03110144
Traffic Incident Summary
Active as of:
Severity:
Category:
InformationThere was an issue retrieving the traffic information for this location. Please try a different location or try again shortly.
Advertisements
Track Severe Weather on mobile